sensor_id;sensor_type;location;lat;lon;timestamp;P1;durP1;ratioP1;P2;durP2;ratioP2
18200;SDS011;9226;47.858;9.594;2022-12-29T00:00:02;3.10;;;1.50;;
18200;SDS011;9226;47.858;9.594;2022-12-29T00:02:29;2.00;;;1.40;;
18200;SDS011;9226;47.858;9.594;2022-12-29T00:04:54;2.37;;;1.30;;
18200;SDS011;9226;47.858;9.594;2022-12-29T00:07:20;3.40;;;1.50;;
18200;SDS011;9226;47.858;9.594;2022-12-29T00:09:45;2.47;;;1.43;;
18200;SDS011;9226;47.858;9.594;2022-12-29T00:12:10;5.70;;;1.37;;
18200;SDS011;9226;47.858;9.594;2022-12-29T00:14:36;3.97;;;1.50;;
18200;SDS011;9226;47.858;9.594;2022-12-29T00:17:20;2.90;;;1.60;;
18200;SDS011;9226;47.858;9.594;2022-12-29T00:19:45;2.47;;;1.53;;
18200;SDS011;9226;47.858;9.594;2022-12-29T00:22:29;4.33;;;1.50;;
18200;SDS011;9226;47.858;9.594;2022-12-29T00:25:13;3.63;;;1.40;;
18200;SDS011;9226;47.858;9.594;2022-12-29T00:27:57;3.70;;;1.30;;
18200;SDS011;9226;47.858;9.594;2022-12-29T00:30:41;3.43;;;1.80;;
18200;SDS011;9226;47.858;9.594;2022-12-29T00:33:28;2.50;;;1.43;;
18200;SDS011;9226;47.858;9.594;2022-12-29T00:38:42;2.93;;;1.50;;
18200;SDS011;9226;47.858;9.594;2022-12-29T00:41:30;2.17;;;1.27;;
18200;SDS011;9226;47.858;9.594;2022-12-29T00:44:14;3.63;;;1.30;;
18200;SDS011;9226;47.858;9.594;2022-12-29T00:46:40;4.13;;;1.53;;
18200;SDS011;9226;47.858;9.594;2022-12-29T00:49:07;2.77;;;1.40;;
18200;SDS011;9226;47.858;9.594;2022-12-29T00:51:55;2.93;;;1.30;;
18200;SDS011;9226;47.858;9.594;2022-12-29T00:54:24;2.30;;;1.30;;
18200;SDS011;9226;47.858;9.594;2022-12-29T00:56:50;2.23;;;1.30;;
18200;SDS011;9226;47.858;9.594;2022-12-29T00:59:17;2.13;;;1.40;;
18200;SDS011;9226;47.858;9.594;2022-12-29T01:01:44;3.20;;;1.40;;
18200;SDS011;9226;47.858;9.594;2022-12-29T01:04:10;2.73;;;1.47;;
18200;SDS011;9226;47.858;9.594;2022-12-29T01:06:36;5.53;;;1.57;;
18200;SDS011;9226;47.858;9.594;2022-12-29T01:09:03;2.93;;;1.30;;
18200;SDS011;9226;47.858;9.594;2022-12-29T01:11:48;1.60;;;1.20;;
18200;SDS011;9226;47.858;9.594;2022-12-29T01:14:14;1.80;;;1.10;;
18200;SDS011;9226;47.858;9.594;2022-12-29T01:16:39;1.70;;;1.13;;
18200;SDS011;9226;47.858;9.594;2022-12-29T01:19:04;2.67;;;1.40;;
18200;SDS011;9226;47.858;9.594;2022-12-29T01:21:31;1.80;;;1.40;;
18200;SDS011;9226;47.858;9.594;2022-12-29T01:23:57;2.13;;;1.23;;
18200;SDS011;9226;47.858;9.594;2022-12-29T01:26:23;3.80;;;1.30;;
18200;SDS011;9226;47.858;9.594;2022-12-29T01:28:48;2.67;;;1.30;;
18200;SDS011;9226;47.858;9.594;2022-12-29T01:31:14;2.93;;;1.53;;
18200;SDS011;9226;47.858;9.594;2022-12-29T01:33:40;2.73;;;1.50;;
18200;SDS011;9226;47.858;9.594;2022-12-29T01:36:07;2.07;;;1.33;;
18200;SDS011;9226;47.858;9.594;2022-12-29T01:38:38;3.30;;;1.30;;
18200;SDS011;9226;47.858;9.594;2022-12-29T01:41:04;1.93;;;1.30;;
18200;SDS011;9226;47.858;9.594;2022-12-29T01:43:40;3.70;;;1.50;;
18200;SDS011;9226;47.858;9.594;2022-12-29T01:46:13;1.60;;;1.30;;
18200;SDS011;9226;47.858;9.594;2022-12-29T01:48:40;2.33;;;1.40;;
18200;SDS011;9226;47.858;9.594;2022-12-29T01:51:07;3.67;;;1.30;;
18200;SDS011;9226;47.858;9.594;2022-12-29T01:53:33;2.40;;;1.40;;
18200;SDS011;9226;47.858;9.594;2022-12-29T01:56:01;3.00;;;1.50;;
18200;SDS011;9226;47.858;9.594;2022-12-29T01:58:30;2.73;;;1.43;;
18200;SDS011;9226;47.858;9.594;2022-12-29T02:01:01;3.57;;;1.83;;
18200;SDS011;9226;47.858;9.594;2022-12-29T02:03:27;3.93;;;1.67;;
18200;SDS011;9226;47.858;9.594;2022-12-29T02:06:02;2.87;;;1.90;;
18200;SDS011;9226;47.858;9.594;2022-12-29T02:08:33;1.97;;;1.10;;
18200;SDS011;9226;47.858;9.594;2022-12-29T02:10:59;2.27;;;1.20;;
18200;SDS011;9226;47.858;9.594;2022-12-29T02:13:25;2.33;;;1.17;;
18200;SDS011;9226;47.858;9.594;2022-12-29T02:18:50;2.17;;;1.27;;
18200;SDS011;9226;47.858;9.594;2022-12-29T02:24:12;2.87;;;1.30;;
18200;SDS011;9226;47.858;9.594;2022-12-29T02:26:47;2.83;;;1.27;;
18200;SDS011;9226;47.858;9.594;2022-12-29T02:43:11;3.97;;;1.10;;
18200;SDS011;9226;47.858;9.594;2022-12-29T02:45:57;2.10;;;1.10;;
18200;SDS011;9226;47.858;9.594;2022-12-29T02:51:09;6.80;;;1.40;;
18200;SDS011;9226;47.858;9.594;2022-12-29T02:54:05;1.40;;;1.10;;
18200;SDS011;9226;47.858;9.594;2022-12-29T02:56:50;3.33;;;1.10;;
18200;SDS011;9226;47.858;9.594;2022-12-29T02:59:15;2.90;;;0.90;;
18200;SDS011;9226;47.858;9.594;2022-12-29T03:12:54;2.27;;;1.20;;
18200;SDS011;9226;47.858;9.594;2022-12-29T03:15:48;4.80;;;1.20;;
18200;SDS011;9226;47.858;9.594;2022-12-29T03:18:30;1.33;;;1.10;;
18200;SDS011;9226;47.858;9.594;2022-12-29T03:23:47;1.43;;;1.10;;
18200;SDS011;9226;47.858;9.594;2022-12-29T03:26:15;2.10;;;1.20;;
18200;SDS011;9226;47.858;9.594;2022-12-29T03:28:50;2.50;;;1.40;;
18200;SDS011;9226;47.858;9.594;2022-12-29T03:31:19;4.50;;;1.50;;
18200;SDS011;9226;47.858;9.594;2022-12-29T03:33:47;3.17;;;1.30;;
18200;SDS011;9226;47.858;9.594;2022-12-29T03:36:28;1.97;;;1.33;;
18200;SDS011;9226;47.858;9.594;2022-12-29T03:38:59;1.97;;;1.20;;
18200;SDS011;9226;47.858;9.594;2022-12-29T03:41:33;2.37;;;1.23;;
18200;SDS011;9226;47.858;9.594;2022-12-29T03:44:00;1.73;;;1.07;;
18200;SDS011;9226;47.858;9.594;2022-12-29T03:46:25;4.93;;;1.37;;
18200;SDS011;9226;47.858;9.594;2022-12-29T03:48:50;2.13;;;1.20;;
18200;SDS011;9226;47.858;9.594;2022-12-29T03:51:16;1.13;;;1.00;;
18200;SDS011;9226;47.858;9.594;2022-12-29T03:53:41;3.53;;;1.53;;
18200;SDS011;9226;47.858;9.594;2022-12-29T03:56:07;3.30;;;1.33;;
18200;SDS011;9226;47.858;9.594;2022-12-29T03:58:32;4.17;;;1.40;;
18200;SDS011;9226;47.858;9.594;2022-12-29T04:00:57;2.50;;;1.40;;
18200;SDS011;9226;47.858;9.594;2022-12-29T04:03:23;4.43;;;1.47;;
18200;SDS011;9226;47.858;9.594;2022-12-29T04:05:48;1.70;;;1.20;;
18200;SDS011;9226;47.858;9.594;2022-12-29T04:08:15;2.03;;;1.30;;
18200;SDS011;9226;47.858;9.594;2022-12-29T04:10:40;2.53;;;1.30;;
18200;SDS011;9226;47.858;9.594;2022-12-29T04:13:06;5.40;;;1.20;;
18200;SDS011;9226;47.858;9.594;2022-12-29T04:15:31;4.07;;;1.30;;
18200;SDS011;9226;47.858;9.594;2022-12-29T04:17:57;2.87;;;1.20;;
18200;SDS011;9226;47.858;9.594;2022-12-29T04:20:22;3.07;;;1.60;;
18200;SDS011;9226;47.858;9.594;2022-12-29T04:23:06;3.50;;;1.40;;
18200;SDS011;9226;47.858;9.594;2022-12-29T04:25:32;3.40;;;1.23;;
18200;SDS011;9226;47.858;9.594;2022-12-29T04:27:58;1.80;;;1.10;;
18200;SDS011;9226;47.858;9.594;2022-12-29T04:30:24;2.20;;;1.30;;
18200;SDS011;9226;47.858;9.594;2022-12-29T04:32:49;4.17;;;1.23;;
18200;SDS011;9226;47.858;9.594;2022-12-29T04:35:15;5.37;;;1.30;;
18200;SDS011;9226;47.858;9.594;2022-12-29T04:37:40;5.20;;;1.70;;
18200;SDS011;9226;47.858;9.594;2022-12-29T04:40:06;2.10;;;1.20;;
18200;SDS011;9226;47.858;9.594;2022-12-29T04:42:32;3.20;;;1.40;;
18200;SDS011;9226;47.858;9.594;2022-12-29T04:44:57;5.57;;;1.37;;
18200;SDS011;9226;47.858;9.594;2022-12-29T04:47:22;5.33;;;1.60;;
18200;SDS011;9226;47.858;9.594;2022-12-29T04:49:48;3.70;;;1.60;;
18200;SDS011;9226;47.858;9.594;2022-12-29T04:52:13;2.23;;;1.40;;
18200;SDS011;9226;47.858;9.594;2022-12-29T04:54:39;3.83;;;1.30;;
18200;SDS011;9226;47.858;9.594;2022-12-29T04:57:04;4.67;;;1.40;;
18200;SDS011;9226;47.858;9.594;2022-12-29T04:59:30;2.20;;;1.30;;
18200;SDS011;9226;47.858;9.594;2022-12-29T05:01:55;1.93;;;1.03;;
18200;SDS011;9226;47.858;9.594;2022-12-29T05:04:21;3.03;;;1.60;;
18200;SDS011;9226;47.858;9.594;2022-12-29T05:06:47;4.47;;;1.40;;
18200;SDS011;9226;47.858;9.594;2022-12-29T05:09:12;3.57;;;1.40;;
18200;SDS011;9226;47.858;9.594;2022-12-29T05:11:37;1.67;;;1.30;;
18200;SDS011;9226;47.858;9.594;2022-12-29T05:14:03;4.10;;;1.43;;
18200;SDS011;9226;47.858;9.594;2022-12-29T05:16:28;2.13;;;1.63;;
18200;SDS011;9226;47.858;9.594;2022-12-29T05:18:53;2.83;;;1.30;;
18200;SDS011;9226;47.858;9.594;2022-12-29T05:21:19;3.97;;;1.40;;
18200;SDS011;9226;47.858;9.594;2022-12-29T05:23:44;5.27;;;1.60;;
18200;SDS011;9226;47.858;9.594;2022-12-29T05:26:10;2.13;;;1.40;;
18200;SDS011;9226;47.858;9.594;2022-12-29T05:28:35;3.53;;;1.33;;
18200;SDS011;9226;47.858;9.594;2022-12-29T05:31:00;3.37;;;1.70;;
18200;SDS011;9226;47.858;9.594;2022-12-29T05:33:26;9.97;;;1.40;;
18200;SDS011;9226;47.858;9.594;2022-12-29T05:35:51;2.33;;;1.30;;
18200;SDS011;9226;47.858;9.594;2022-12-29T05:38:17;1.63;;;1.20;;
18200;SDS011;9226;47.858;9.594;2022-12-29T05:40:43;2.67;;;1.40;;
18200;SDS011;9226;47.858;9.594;2022-12-29T05:43:08;3.80;;;1.70;;
18200;SDS011;9226;47.858;9.594;2022-12-29T05:45:35;3.67;;;1.60;;
18200;SDS011;9226;47.858;9.594;2022-12-29T05:48:01;7.90;;;1.30;;
18200;SDS011;9226;47.858;9.594;2022-12-29T05:50:26;6.13;;;1.43;;
18200;SDS011;9226;47.858;9.594;2022-12-29T05:52:51;4.07;;;1.50;;
18200;SDS011;9226;47.858;9.594;2022-12-29T05:55:17;2.30;;;1.00;;
18200;SDS011;9226;47.858;9.594;2022-12-29T05:57:42;1.67;;;1.20;;
18200;SDS011;9226;47.858;9.594;2022-12-29T06:00:08;2.60;;;1.40;;
18200;SDS011;9226;47.858;9.594;2022-12-29T06:02:34;4.67;;;1.40;;
18200;SDS011;9226;47.858;9.594;2022-12-29T06:04:59;4.63;;;1.20;;
18200;SDS011;9226;47.858;9.594;2022-12-29T06:07:25;5.00;;;1.60;;
18200;SDS011;9226;47.858;9.594;2022-12-29T06:09:50;3.47;;;1.53;;
18200;SDS011;9226;47.858;9.594;2022-12-29T06:12:15;3.13;;;1.33;;
18200;SDS011;9226;47.858;9.594;2022-12-29T06:14:41;3.67;;;1.10;;
18200;SDS011;9226;47.858;9.594;2022-12-29T06:17:07;2.90;;;1.40;;
18200;SDS011;9226;47.858;9.594;2022-12-29T06:19:32;4.50;;;1.50;;
18200;SDS011;9226;47.858;9.594;2022-12-29T06:21:57;2.57;;;1.30;;
18200;SDS011;9226;47.858;9.594;2022-12-29T06:24:23;2.93;;;1.60;;
18200;SDS011;9226;47.858;9.594;2022-12-29T06:26:48;1.80;;;1.20;;
18200;SDS011;9226;47.858;9.594;2022-12-29T06:29:14;3.67;;;2.17;;
18200;SDS011;9226;47.858;9.594;2022-12-29T06:31:43;2.70;;;1.20;;
18200;SDS011;9226;47.858;9.594;2022-12-29T06:34:10;2.93;;;1.50;;
18200;SDS011;9226;47.858;9.594;2022-12-29T06:36:37;2.10;;;1.20;;
18200;SDS011;9226;47.858;9.594;2022-12-29T06:39:02;6.83;;;1.43;;
18200;SDS011;9226;47.858;9.594;2022-12-29T06:41:28;5.33;;;1.43;;
18200;SDS011;9226;47.858;9.594;2022-12-29T06:43:53;1.77;;;1.27;;
18200;SDS011;9226;47.858;9.594;2022-12-29T06:46:18;3.93;;;1.40;;
18200;SDS011;9226;47.858;9.594;2022-12-29T06:48:44;2.73;;;1.60;;
18200;SDS011;9226;47.858;9.594;2022-12-29T06:51:09;2.27;;;1.50;;
18200;SDS011;9226;47.858;9.594;2022-12-29T06:53:35;4.50;;;1.70;;
18200;SDS011;9226;47.858;9.594;2022-12-29T06:56:00;3.87;;;1.63;;
18200;SDS011;9226;47.858;9.594;2022-12-29T06:58:25;2.27;;;1.40;;
18200;SDS011;9226;47.858;9.594;2022-12-29T07:00:51;3.23;;;1.67;;
18200;SDS011;9226;47.858;9.594;2022-12-29T07:03:16;1.83;;;1.40;;
18200;SDS011;9226;47.858;9.594;2022-12-29T07:05:41;1.87;;;1.30;;
18200;SDS011;9226;47.858;9.594;2022-12-29T07:08:07;1.70;;;1.30;;
18200;SDS011;9226;47.858;9.594;2022-12-29T07:10:33;2.53;;;1.20;;
18200;SDS011;9226;47.858;9.594;2022-12-29T07:12:58;5.97;;;1.93;;
18200;SDS011;9226;47.858;9.594;2022-12-29T07:15:23;3.33;;;1.97;;
18200;SDS011;9226;47.858;9.594;2022-12-29T07:17:49;5.67;;;1.97;;
18200;SDS011;9226;47.858;9.594;2022-12-29T07:20:14;3.10;;;1.60;;
18200;SDS011;9226;47.858;9.594;2022-12-29T07:22:40;4.07;;;1.73;;
18200;SDS011;9226;47.858;9.594;2022-12-29T07:25:06;2.97;;;1.60;;
18200;SDS011;9226;47.858;9.594;2022-12-29T07:27:32;4.93;;;1.73;;
18200;SDS011;9226;47.858;9.594;2022-12-29T07:29:57;3.30;;;1.60;;
18200;SDS011;9226;47.858;9.594;2022-12-29T07:32:23;4.37;;;2.00;;
18200;SDS011;9226;47.858;9.594;2022-12-29T07:34:48;4.27;;;1.73;;
18200;SDS011;9226;47.858;9.594;2022-12-29T07:37:17;3.73;;;1.73;;
18200;SDS011;9226;47.858;9.594;2022-12-29T07:39:43;2.43;;;1.60;;
18200;SDS011;9226;47.858;9.594;2022-12-29T07:42:08;2.57;;;1.50;;
18200;SDS011;9226;47.858;9.594;2022-12-29T07:44:33;4.37;;;1.63;;
18200;SDS011;9226;47.858;9.594;2022-12-29T07:46:59;2.93;;;1.53;;
18200;SDS011;9226;47.858;9.594;2022-12-29T07:49:24;6.13;;;1.97;;
18200;SDS011;9226;47.858;9.594;2022-12-29T07:51:50;2.53;;;1.47;;
18200;SDS011;9226;47.858;9.594;2022-12-29T07:54:16;3.27;;;1.60;;
18200;SDS011;9226;47.858;9.594;2022-12-29T07:56:43;3.00;;;1.63;;
18200;SDS011;9226;47.858;9.594;2022-12-29T07:59:09;4.10;;;1.87;;
18200;SDS011;9226;47.858;9.594;2022-12-29T08:01:34;3.23;;;1.67;;
18200;SDS011;9226;47.858;9.594;2022-12-29T08:04:00;3.73;;;1.67;;
18200;SDS011;9226;47.858;9.594;2022-12-29T08:06:25;4.60;;;1.93;;
18200;SDS011;9226;47.858;9.594;2022-12-29T08:08:50;2.97;;;1.90;;
18200;SDS011;9226;47.858;9.594;2022-12-29T08:11:16;5.60;;;1.70;;
18200;SDS011;9226;47.858;9.594;2022-12-29T08:13:41;5.67;;;1.67;;
18200;SDS011;9226;47.858;9.594;2022-12-29T08:16:07;4.70;;;1.67;;
18200;SDS011;9226;47.858;9.594;2022-12-29T08:18:32;7.93;;;1.70;;
18200;SDS011;9226;47.858;9.594;2022-12-29T08:21:01;5.17;;;1.53;;
18200;SDS011;9226;47.858;9.594;2022-12-29T08:23:28;5.63;;;1.70;;
18200;SDS011;9226;47.858;9.594;2022-12-29T08:25:56;3.30;;;1.70;;
18200;SDS011;9226;47.858;9.594;2022-12-29T08:28:23;2.63;;;1.47;;
18200;SDS011;9226;47.858;9.594;2022-12-29T08:30:48;3.43;;;1.50;;
18200;SDS011;9226;47.858;9.594;2022-12-29T08:33:14;3.37;;;1.60;;
18200;SDS011;9226;47.858;9.594;2022-12-29T08:35:39;5.60;;;1.77;;
18200;SDS011;9226;47.858;9.594;2022-12-29T08:38:04;2.97;;;1.40;;
18200;SDS011;9226;47.858;9.594;2022-12-29T08:40:30;2.63;;;1.27;;
18200;SDS011;9226;47.858;9.594;2022-12-29T08:42:55;2.43;;;1.40;;
18200;SDS011;9226;47.858;9.594;2022-12-29T08:45:20;2.90;;;1.40;;
18200;SDS011;9226;47.858;9.594;2022-12-29T08:47:46;2.17;;;1.30;;
18200;SDS011;9226;47.858;9.594;2022-12-29T08:50:11;1.67;;;1.07;;
18200;SDS011;9226;47.858;9.594;2022-12-29T08:52:36;2.33;;;1.30;;
18200;SDS011;9226;47.858;9.594;2022-12-29T08:55:02;3.07;;;1.57;;
18200;SDS011;9226;47.858;9.594;2022-12-29T08:57:27;3.43;;;1.23;;
18200;SDS011;9226;47.858;9.594;2022-12-29T08:59:53;2.53;;;1.30;;
18200;SDS011;9226;47.858;9.594;2022-12-29T09:02:18;2.80;;;1.20;;
18200;SDS011;9226;47.858;9.594;2022-12-29T09:04:44;3.17;;;1.50;;
18200;SDS011;9226;47.858;9.594;2022-12-29T09:07:10;4.10;;;1.50;;
18200;SDS011;9226;47.858;9.594;2022-12-29T09:09:35;5.13;;;1.70;;
18200;SDS011;9226;47.858;9.594;2022-12-29T09:12:01;2.90;;;1.47;;
18200;SDS011;9226;47.858;9.594;2022-12-29T09:14:26;3.13;;;1.40;;
18200;SDS011;9226;47.858;9.594;2022-12-29T09:16:52;2.60;;;1.40;;
18200;SDS011;9226;47.858;9.594;2022-12-29T09:19:36;4.10;;;1.33;;
18200;SDS011;9226;47.858;9.594;2022-12-29T09:22:02;2.20;;;1.13;;
18200;SDS011;9226;47.858;9.594;2022-12-29T09:24:28;1.53;;;1.10;;
18200;SDS011;9226;47.858;9.594;2022-12-29T09:26:53;2.87;;;1.10;;
18200;SDS011;9226;47.858;9.594;2022-12-29T09:29:19;3.27;;;1.37;;
18200;SDS011;9226;47.858;9.594;2022-12-29T09:31:44;3.17;;;1.40;;
18200;SDS011;9226;47.858;9.594;2022-12-29T09:34:09;1.70;;;1.10;;
18200;SDS011;9226;47.858;9.594;2022-12-29T09:36:35;7.87;;;1.40;;
18200;SDS011;9226;47.858;9.594;2022-12-29T09:39:00;1.97;;;1.30;;
18200;SDS011;9226;47.858;9.594;2022-12-29T09:42:00;1.50;;;1.20;;
18200;SDS011;9226;47.858;9.594;2022-12-29T09:44:50;1.50;;;1.27;;
18200;SDS011;9226;47.858;9.594;2022-12-29T09:47:17;2.47;;;1.30;;
18200;SDS011;9226;47.858;9.594;2022-12-29T09:52:29;1.77;;;1.10;;
18200;SDS011;9226;47.858;9.594;2022-12-29T09:55:02;3.07;;;1.50;;
18200;SDS011;9226;47.858;9.594;2022-12-29T10:00:37;2.70;;;1.40;;
18200;SDS011;9226;47.858;9.594;2022-12-29T10:03:16;5.90;;;1.50;;
18200;SDS011;9226;47.858;9.594;2022-12-29T10:05:56;2.23;;;1.30;;
18200;SDS011;9226;47.858;9.594;2022-12-29T10:08:37;5.03;;;1.37;;
18200;SDS011;9226;47.858;9.594;2022-12-29T10:11:09;4.53;;;1.27;;
18200;SDS011;9226;47.858;9.594;2022-12-29T10:25:15;1.63;;;1.10;;
18200;SDS011;9226;47.858;9.594;2022-12-29T10:27:43;3.00;;;1.30;;
18200;SDS011;9226;47.858;9.594;2022-12-29T10:30:12;2.30;;;1.37;;
18200;SDS011;9226;47.858;9.594;2022-12-29T10:32:40;1.70;;;1.23;;
18200;SDS011;9226;47.858;9.594;2022-12-29T10:43:25;3.17;;;2.03;;
18200;SDS011;9226;47.858;9.594;2022-12-29T10:46:13;2.23;;;1.47;;
18200;SDS011;9226;47.858;9.594;2022-12-29T10:48:42;3.37;;;1.60;;
18200;SDS011;9226;47.858;9.594;2022-12-29T10:51:10;6.27;;;2.70;;
18200;SDS011;9226;47.858;9.594;2022-12-29T10:56:40;3.57;;;2.10;;
18200;SDS011;9226;47.858;9.594;2022-12-29T11:04:56;7.20;;;2.27;;
18200;SDS011;9226;47.858;9.594;2022-12-29T11:07:29;2.47;;;1.60;;
18200;SDS011;9226;47.858;9.594;2022-12-29T11:09:55;2.00;;;1.30;;
18200;SDS011;9226;47.858;9.594;2022-12-29T11:12:41;3.77;;;1.40;;
18200;SDS011;9226;47.858;9.594;2022-12-29T11:15:20;5.63;;;1.87;;
18200;SDS011;9226;47.858;9.594;2022-12-29T11:17:47;2.23;;;1.53;;
18200;SDS011;9226;47.858;9.594;2022-12-29T11:20:34;3.27;;;1.60;;
18200;SDS011;9226;47.858;9.594;2022-12-29T11:23:05;3.57;;;1.50;;
18200;SDS011;9226;47.858;9.594;2022-12-29T11:34:22;3.40;;;1.90;;
18200;SDS011;9226;47.858;9.594;2022-12-29T11:36:53;3.27;;;1.50;;
18200;SDS011;9226;47.858;9.594;2022-12-29T11:42:31;6.27;;;1.60;;
18200;SDS011;9226;47.858;9.594;2022-12-29T11:45:06;4.20;;;1.50;;
18200;SDS011;9226;47.858;9.594;2022-12-29T11:47:41;2.17;;;1.13;;
18200;SDS011;9226;47.858;9.594;2022-12-29T11:50:15;1.83;;;1.30;;
18200;SDS011;9226;47.858;9.594;2022-12-29T11:53:04;1.63;;;1.10;;
18200;SDS011;9226;47.858;9.594;2022-12-29T11:55:36;1.80;;;1.10;;
18200;SDS011;9226;47.858;9.594;2022-12-29T11:58:02;1.70;;;1.13;;
18200;SDS011;9226;47.858;9.594;2022-12-29T12:00:31;5.73;;;1.17;;
18200;SDS011;9226;47.858;9.594;2022-12-29T12:03:04;2.90;;;1.00;;
18200;SDS011;9226;47.858;9.594;2022-12-29T12:05:41;3.17;;;1.10;;
18200;SDS011;9226;47.858;9.594;2022-12-29T12:08:13;3.43;;;1.33;;
18200;SDS011;9226;47.858;9.594;2022-12-29T12:10:48;3.17;;;1.30;;
18200;SDS011;9226;47.858;9.594;2022-12-29T12:13:35;4.47;;;1.17;;
18200;SDS011;9226;47.858;9.594;2022-12-29T12:16:14;2.47;;;1.40;;
18200;SDS011;9226;47.858;9.594;2022-12-29T12:18:50;3.23;;;1.33;;
18200;SDS011;9226;47.858;9.594;2022-12-29T12:24:04;1.83;;;1.03;;
18200;SDS011;9226;47.858;9.594;2022-12-29T12:29:45;2.30;;;1.30;;
18200;SDS011;9226;47.858;9.594;2022-12-29T12:32:24;3.33;;;1.43;;
18200;SDS011;9226;47.858;9.594;2022-12-29T12:34:59;3.77;;;1.20;;
18200;SDS011;9226;47.858;9.594;2022-12-29T12:54:24;2.97;;;1.43;;
18200;SDS011;9226;47.858;9.594;2022-12-29T13:00:09;2.67;;;1.30;;
18200;SDS011;9226;47.858;9.594;2022-12-29T13:05:33;3.37;;;1.30;;
18200;SDS011;9226;47.858;9.594;2022-12-29T13:13:29;3.10;;;1.80;;
18200;SDS011;9226;47.858;9.594;2022-12-29T13:16:01;5.80;;;1.43;;
18200;SDS011;9226;47.858;9.594;2022-12-29T13:26:39;2.37;;;1.30;;
18200;SDS011;9226;47.858;9.594;2022-12-29T13:29:23;2.30;;;1.67;;
18200;SDS011;9226;47.858;9.594;2022-12-29T13:31:55;7.43;;;1.90;;
18200;SDS011;9226;47.858;9.594;2022-12-29T13:37:01;3.57;;;1.70;;
18200;SDS011;9226;47.858;9.594;2022-12-29T13:39:47;3.57;;;1.93;;
18200;SDS011;9226;47.858;9.594;2022-12-29T13:42:16;5.13;;;1.70;;
18200;SDS011;9226;47.858;9.594;2022-12-29T13:44:48;8.87;;;2.80;;
18200;SDS011;9226;47.858;9.594;2022-12-29T13:47:33;6.83;;;2.93;;
18200;SDS011;9226;47.858;9.594;2022-12-29T13:50:03;8.63;;;2.17;;
18200;SDS011;9226;47.858;9.594;2022-12-29T13:52:38;4.97;;;1.50;;
18200;SDS011;9226;47.858;9.594;2022-12-29T13:55:28;2.47;;;1.20;;
18200;SDS011;9226;47.858;9.594;2022-12-29T14:00:28;3.23;;;1.30;;
18200;SDS011;9226;47.858;9.594;2022-12-29T14:08:36;2.43;;;1.30;;
18200;SDS011;9226;47.858;9.594;2022-12-29T14:11:05;6.67;;;1.40;;
18200;SDS011;9226;47.858;9.594;2022-12-29T14:13:37;5.63;;;1.43;;
18200;SDS011;9226;47.858;9.594;2022-12-29T14:16:05;3.90;;;1.27;;
18200;SDS011;9226;47.858;9.594;2022-12-29T14:18:31;4.53;;;1.50;;
18200;SDS011;9226;47.858;9.594;2022-12-29T14:23:40;2.03;;;1.20;;
18200;SDS011;9226;47.858;9.594;2022-12-29T14:28:54;6.07;;;1.70;;
18200;SDS011;9226;47.858;9.594;2022-12-29T14:36:41;1.97;;;1.13;;
18200;SDS011;9226;47.858;9.594;2022-12-29T14:40:03;4.23;;;1.63;;
18200;SDS011;9226;47.858;9.594;2022-12-29T14:44:48;5.27;;;1.70;;
18200;SDS011;9226;47.858;9.594;2022-12-29T14:47:19;4.73;;;1.80;;
18200;SDS011;9226;47.858;9.594;2022-12-29T14:50:06;5.37;;;2.07;;
18200;SDS011;9226;47.858;9.594;2022-12-29T14:52:57;5.77;;;2.40;;
18200;SDS011;9226;47.858;9.594;2022-12-29T14:55:40;4.13;;;1.60;;
18200;SDS011;9226;47.858;9.594;2022-12-29T15:00:42;4.43;;;1.40;;
18200;SDS011;9226;47.858;9.594;2022-12-29T15:06:19;4.83;;;1.50;;
18200;SDS011;9226;47.858;9.594;2022-12-29T15:09:04;1.97;;;1.23;;
18200;SDS011;9226;47.858;9.594;2022-12-29T15:14:24;2.57;;;1.40;;
18200;SDS011;9226;47.858;9.594;2022-12-29T15:16:52;4.33;;;1.30;;
18200;SDS011;9226;47.858;9.594;2022-12-29T15:19:24;3.07;;;1.60;;
18200;SDS011;9226;47.858;9.594;2022-12-29T15:21:50;8.80;;;1.50;;
18200;SDS011;9226;47.858;9.594;2022-12-29T15:24:18;4.77;;;1.67;;
18200;SDS011;9226;47.858;9.594;2022-12-29T15:26:45;3.83;;;1.67;;
18200;SDS011;9226;47.858;9.594;2022-12-29T15:32:21;6.33;;;1.47;;
18200;SDS011;9226;47.858;9.594;2022-12-29T15:34:51;5.10;;;1.70;;
18200;SDS011;9226;47.858;9.594;2022-12-29T15:37:20;4.30;;;1.43;;
18200;SDS011;9226;47.858;9.594;2022-12-29T15:39:50;2.67;;;1.10;;
18200;SDS011;9226;47.858;9.594;2022-12-29T15:42:41;2.27;;;1.50;;
18200;SDS011;9226;47.858;9.594;2022-12-29T15:45:20;2.67;;;1.20;;
18200;SDS011;9226;47.858;9.594;2022-12-29T15:47:55;4.37;;;1.47;;
18200;SDS011;9226;47.858;9.594;2022-12-29T15:50:22;3.33;;;1.33;;
18200;SDS011;9226;47.858;9.594;2022-12-29T15:52:51;7.23;;;1.13;;
18200;SDS011;9226;47.858;9.594;2022-12-29T15:55:21;4.27;;;1.90;;
18200;SDS011;9226;47.858;9.594;2022-12-29T15:57:57;3.93;;;1.37;;
18200;SDS011;9226;47.858;9.594;2022-12-29T16:00:31;7.17;;;1.50;;
18200;SDS011;9226;47.858;9.594;2022-12-29T16:03:02;8.53;;;2.80;;
18200;SDS011;9226;47.858;9.594;2022-12-29T16:05:36;7.77;;;1.37;;
18200;SDS011;9226;47.858;9.594;2022-12-29T16:08:03;2.13;;;1.27;;
18200;SDS011;9226;47.858;9.594;2022-12-29T16:10:47;4.37;;;1.50;;
18200;SDS011;9226;47.858;9.594;2022-12-29T16:13:20;1.93;;;1.30;;
18200;SDS011;9226;47.858;9.594;2022-12-29T16:16:00;6.17;;;1.33;;
18200;SDS011;9226;47.858;9.594;2022-12-29T16:18:41;3.53;;;1.13;;
18200;SDS011;9226;47.858;9.594;2022-12-29T16:21:15;3.80;;;2.20;;
18200;SDS011;9226;47.858;9.594;2022-12-29T16:23:48;2.30;;;1.20;;
18200;SDS011;9226;47.858;9.594;2022-12-29T16:26:16;4.40;;;1.63;;
18200;SDS011;9226;47.858;9.594;2022-12-29T16:28:43;4.33;;;2.10;;
18200;SDS011;9226;47.858;9.594;2022-12-29T16:31:21;2.70;;;1.57;;
18200;SDS011;9226;47.858;9.594;2022-12-29T16:33:57;2.33;;;1.20;;
18200;SDS011;9226;47.858;9.594;2022-12-29T16:38:50;2.20;;;1.27;;
18200;SDS011;9226;47.858;9.594;2022-12-29T16:41:31;1.83;;;1.17;;
18200;SDS011;9226;47.858;9.594;2022-12-29T16:49:35;2.93;;;1.37;;
18200;SDS011;9226;47.858;9.594;2022-12-29T16:52:13;3.40;;;1.23;;
18200;SDS011;9226;47.858;9.594;2022-12-29T16:54:50;5.43;;;1.30;;
18200;SDS011;9226;47.858;9.594;2022-12-29T16:57:28;3.70;;;1.60;;
18200;SDS011;9226;47.858;9.594;2022-12-29T17:00:00;2.23;;;1.37;;
18200;SDS011;9226;47.858;9.594;2022-12-29T17:02:29;6.90;;;1.60;;
18200;SDS011;9226;47.858;9.594;2022-12-29T17:04:57;4.60;;;1.70;;
18200;SDS011;9226;47.858;9.594;2022-12-29T17:07:23;4.73;;;2.10;;
18200;SDS011;9226;47.858;9.594;2022-12-29T17:09:50;3.77;;;1.83;;
18200;SDS011;9226;47.858;9.594;2022-12-29T17:12:19;5.40;;;2.17;;
18200;SDS011;9226;47.858;9.594;2022-12-29T17:14:52;7.30;;;2.80;;
18200;SDS011;9226;47.858;9.594;2022-12-29T17:22:42;14.23;;;5.30;;
18200;SDS011;9226;47.858;9.594;2022-12-29T17:25:10;8.83;;;4.20;;
18200;SDS011;9226;47.858;9.594;2022-12-29T17:27:38;8.80;;;4.20;;
18200;SDS011;9226;47.858;9.594;2022-12-29T17:30:27;10.37;;;3.73;;
18200;SDS011;9226;47.858;9.594;2022-12-29T17:32:55;5.10;;;2.03;;
18200;SDS011;9226;47.858;9.594;2022-12-29T17:35:24;10.60;;;4.50;;
18200;SDS011;9226;47.858;9.594;2022-12-29T17:37:49;3.83;;;1.90;;
18200;SDS011;9226;47.858;9.594;2022-12-29T17:40:19;4.10;;;2.33;;
18200;SDS011;9226;47.858;9.594;2022-12-29T17:42:49;3.67;;;2.03;;
18200;SDS011;9226;47.858;9.594;2022-12-29T17:45:20;4.73;;;1.80;;
18200;SDS011;9226;47.858;9.594;2022-12-29T17:47:47;2.23;;;1.40;;
18200;SDS011;9226;47.858;9.594;2022-12-29T17:50:17;2.80;;;1.50;;
18200;SDS011;9226;47.858;9.594;2022-12-29T17:52:49;4.20;;;1.67;;
18200;SDS011;9226;47.858;9.594;2022-12-29T17:55:18;3.87;;;1.47;;
18200;SDS011;9226;47.858;9.594;2022-12-29T17:57:45;4.00;;;1.37;;
18200;SDS011;9226;47.858;9.594;2022-12-29T18:00:16;2.97;;;1.50;;
18200;SDS011;9226;47.858;9.594;2022-12-29T18:02:43;2.63;;;1.30;;
18200;SDS011;9226;47.858;9.594;2022-12-29T18:07:45;3.70;;;1.10;;
18200;SDS011;9226;47.858;9.594;2022-12-29T18:10:11;4.83;;;1.40;;
18200;SDS011;9226;47.858;9.594;2022-12-29T18:12:39;4.10;;;1.30;;
18200;SDS011;9226;47.858;9.594;2022-12-29T18:15:07;2.40;;;1.30;;